createdAt,value
2018-09-17T00:01:23.644Z,4.35
2018-09-17T00:03:51.967Z,4.30
2018-09-17T00:06:20.283Z,4.47
2018-09-17T00:08:48.735Z,4.58
2018-09-17T00:11:17.050Z,4.10
2018-09-17T00:13:45.383Z,4.50
2018-09-17T00:16:13.874Z,4.43
2018-09-17T00:18:42.166Z,4.15
2018-09-17T00:21:10.480Z,4.28
2018-09-17T00:23:38.849Z,4.58
2018-09-17T00:26:07.189Z,4.33
2018-09-17T00:28:35.510Z,4.30
2018-09-17T00:31:03.835Z,4.70
2018-09-17T00:33:32.178Z,4.60
2018-09-17T00:36:00.475Z,4.58
2018-09-17T00:38:28.788Z,4.80
2018-09-17T00:40:57.098Z,4.70
2018-09-17T00:43:25.409Z,4.70
2018-09-17T00:45:53.727Z,4.60
2018-09-17T00:48:22.016Z,4.42
2018-09-17T00:50:50.325Z,4.10
2018-09-17T00:53:18.736Z,4.20
2018-09-17T00:55:47.038Z,4.30
2018-09-17T00:58:15.318Z,4.25
2018-09-17T01:00:43.923Z,4.15
2018-09-17T01:03:12.336Z,4.40
2018-09-17T01:05:40.623Z,4.60
2018-09-17T01:08:08.943Z,4.20
2018-09-17T01:10:37.293Z,4.40
2018-09-17T01:13:05.565Z,4.80
2018-09-17T01:15:33.874Z,4.30
2018-09-17T01:18:02.178Z,4.75
2018-09-17T01:20:30.537Z,4.60
2018-09-17T01:22:58.809Z,4.55
2018-09-17T01:25:27.082Z,4.80
2018-09-17T01:27:55.390Z,4.42
2018-09-17T01:30:30.133Z,4.50
2018-09-17T01:32:58.417Z,5.10
2018-09-17T01:35:26.717Z,5.03
2018-09-17T01:37:55.044Z,5.20
2018-09-17T01:40:23.341Z,4.90
2018-09-17T01:42:51.694Z,5.53
2018-09-17T01:45:20.010Z,4.95
2018-09-17T01:47:48.291Z,4.67
2018-09-17T01:50:16.580Z,4.80
2018-09-17T01:52:44.918Z,4.00
2018-09-17T01:55:13.227Z,4.60
2018-09-17T01:57:41.502Z,4.05
2018-09-17T02:00:09.794Z,4.35
2018-09-17T02:02:38.068Z,4.60
2018-09-17T02:05:06.545Z,4.17
2018-09-17T02:07:34.881Z,4.10
2018-09-17T02:10:03.355Z,3.75
2018-09-17T02:12:31.585Z,4.10
2018-09-17T02:14:59.865Z,4.50
2018-09-17T02:17:29.057Z,4.40
2018-09-17T02:19:57.337Z,4.20
2018-09-17T02:22:25.660Z,4.60
2018-09-17T02:24:54.143Z,4.37
2018-09-17T02:27:22.505Z,4.50
2018-09-17T02:29:57.596Z,4.87
2018-09-17T02:32:25.986Z,4.58
2018-09-17T02:34:54.330Z,4.70
2018-09-17T02:37:22.633Z,4.90
2018-09-17T02:39:51.167Z,4.80
2018-09-17T02:42:19.453Z,4.90
2018-09-17T02:44:47.747Z,5.00
2018-09-17T02:47:16.082Z,4.60
2018-09-17T02:49:44.399Z,4.92
2018-09-17T02:52:12.686Z,4.40
2018-09-17T02:54:40.969Z,4.60
2018-09-17T02:57:09.252Z,4.60
2018-09-17T02:59:37.546Z,4.75
2018-09-17T03:02:06.056Z,5.00
2018-09-17T03:04:34.353Z,4.50
2018-09-17T03:07:02.704Z,5.20
2018-09-17T03:09:31.007Z,4.80
2018-09-17T03:11:59.349Z,4.80
2018-09-17T03:14:29.402Z,4.80
2018-09-17T03:17:15.655Z,5.28
2018-09-17T03:19:44.974Z,4.87
2018-09-17T03:22:14.163Z,4.70
2018-09-17T03:24:42.511Z,4.58
2018-09-17T03:27:10.827Z,4.62
2018-09-17T03:29:39.206Z,5.00
2018-09-17T03:32:07.506Z,4.63
2018-09-17T03:34:35.769Z,4.40
2018-09-17T03:37:04.102Z,4.50
2018-09-17T03:39:32.425Z,4.75
2018-09-17T03:42:00.778Z,4.65
2018-09-17T03:44:29.091Z,5.03
2018-09-17T03:46:57.394Z,5.35
2018-09-17T03:49:25.714Z,5.20
2018-09-17T03:51:54.049Z,5.30
2018-09-17T03:54:22.307Z,5.50
2018-09-17T03:56:50.640Z,5.50
2018-09-17T03:59:18.957Z,5.20
2018-09-17T04:01:47.284Z,5.47
2018-09-17T04:04:22.833Z,5.55
2018-09-17T04:06:51.193Z,5.30
2018-09-17T04:09:19.496Z,5.95
2018-09-17T04:11:47.870Z,5.55
2018-09-17T04:14:16.195Z,5.60
2018-09-17T04:16:44.511Z,5.35
2018-09-17T04:19:12.872Z,6.00
2018-09-17T04:21:41.165Z,5.60
2018-09-17T04:24:09.472Z,5.78
2018-09-17T04:26:37.757Z,5.12
2018-09-17T04:29:06.222Z,4.85
2018-09-17T04:31:34.514Z,5.97
2018-09-17T04:34:02.855Z,5.67
2018-09-17T04:36:31.194Z,6.03
2018-09-17T04:38:59.525Z,6.20
2018-09-17T04:41:27.832Z,6.20
2018-09-17T04:43:56.155Z,6.10
2018-09-17T04:46:24.485Z,5.90
2018-09-17T04:48:52.802Z,5.70
2018-09-17T04:51:21.231Z,5.80
2018-09-17T04:53:49.561Z,6.08
2018-09-17T04:56:17.902Z,5.80
2018-09-17T04:58:46.202Z,6.10
2018-09-17T05:01:14.493Z,6.40
2018-09-17T05:03:42.781Z,6.30
2018-09-17T05:06:11.053Z,6.20
2018-09-17T05:08:39.348Z,6.78
2018-09-17T05:11:07.663Z,6.30
2018-09-17T05:13:35.996Z,6.80
2018-09-17T05:16:04.421Z,6.50
2018-09-17T05:18:32.761Z,7.00
2018-09-17T05:21:01.049Z,9.13
2018-09-17T05:23:29.354Z,7.10
2018-09-17T05:25:57.658Z,6.80
2018-09-17T05:28:25.961Z,7.37
2018-09-17T05:30:54.263Z,7.22
2018-09-17T05:33:22.537Z,6.70
2018-09-17T05:35:50.946Z,7.30
2018-09-17T05:38:19.671Z,6.83
2018-09-17T05:40:47.951Z,6.63
2018-09-17T05:43:16.257Z,6.85
2018-09-17T05:45:44.571Z,7.08
2018-09-17T05:48:12.935Z,6.60
2018-09-17T05:50:41.244Z,7.83
2018-09-17T05:53:09.644Z,6.97
2018-09-17T05:55:37.943Z,7.40
2018-09-17T05:58:06.314Z,7.10
2018-09-17T06:00:34.634Z,6.93
2018-09-17T06:03:02.910Z,7.20
2018-09-17T06:05:35.004Z,7.40
2018-09-17T06:08:03.309Z,7.20
2018-09-17T06:10:31.634Z,7.37
2018-09-17T06:12:59.917Z,7.60
2018-09-17T06:15:28.263Z,7.62
2018-09-17T06:17:56.519Z,7.20
2018-09-17T06:20:24.853Z,7.75
2018-09-17T06:22:53.190Z,7.58
2018-09-17T06:25:21.524Z,7.30
2018-09-17T06:27:49.847Z,8.35
2018-09-17T06:30:18.151Z,8.40
2018-09-17T06:32:46.445Z,8.70
2018-09-17T06:35:14.775Z,8.50
2018-09-17T06:37:49.527Z,8.10
2018-09-17T06:40:17.811Z,8.35
2018-09-17T06:42:46.150Z,9.45
2018-09-17T06:45:14.485Z,8.20
2018-09-17T06:47:42.867Z,8.85
2018-09-17T06:50:11.165Z,8.70
2018-09-17T06:52:39.733Z,9.10
2018-09-17T06:55:08.294Z,10.00
2018-09-17T06:57:36.614Z,9.93
2018-09-17T07:00:05.208Z,10.03
2018-09-17T07:02:33.545Z,9.80
2018-09-17T07:05:01.887Z,9.20
2018-09-17T07:07:30.197Z,9.33
2018-09-17T07:09:58.497Z,9.40
2018-09-17T07:12:26.777Z,9.80
2018-09-17T07:14:55.268Z,11.50
2018-09-17T07:17:23.549Z,9.70
2018-09-17T07:19:51.941Z,10.15
2018-09-17T07:22:20.258Z,11.00
2018-09-17T07:24:48.560Z,10.60
2018-09-17T07:27:16.857Z,10.40
2018-09-17T07:29:45.394Z,11.00
2018-09-17T07:32:13.697Z,9.30
2018-09-17T07:34:42.081Z,9.15
2018-09-17T07:37:10.453Z,9.98
2018-09-17T07:39:38.739Z,9.03
2018-09-17T07:42:07.131Z,9.20
2018-09-17T07:44:35.449Z,9.40
2018-09-17T07:47:03.785Z,9.60
2018-09-17T07:49:32.127Z,9.83
2018-09-17T07:52:00.919Z,9.68
2018-09-17T07:54:29.230Z,9.40
2018-09-17T07:56:57.790Z,10.15
2018-09-17T07:59:26.103Z,11.70
2018-09-17T08:01:54.455Z,10.35
2018-09-17T08:04:22.803Z,10.60
2018-09-17T08:06:51.159Z,10.95
2018-09-17T08:09:19.446Z,11.57
2018-09-17T08:11:47.807Z,11.12
2018-09-17T08:14:16.137Z,11.70
2018-09-17T08:16:44.485Z,11.85
2018-09-17T08:19:12.777Z,12.30
2018-09-17T08:21:41.078Z,13.60
2018-09-17T08:24:09.390Z,12.68
2018-09-17T08:26:37.672Z,12.43
2018-09-17T08:29:06.258Z,12.20
2018-09-17T08:31:34.613Z,13.18
2018-09-17T08:34:02.960Z,12.40
2018-09-17T08:36:31.252Z,11.10
2018-09-17T08:38:59.582Z,10.30
2018-09-17T08:41:27.861Z,10.35
2018-09-17T08:43:56.380Z,10.18
2018-09-17T08:46:24.834Z,10.30
2018-09-17T08:48:53.220Z,10.08
2018-09-17T08:51:22.286Z,8.95
2018-09-17T08:53:50.640Z,8.48
2018-09-17T08:56:22.157Z,9.08
2018-09-17T08:59:57.909Z,8.68
2018-09-17T09:03:30.641Z,8.80
2018-09-17T09:06:04.217Z,8.80
2018-09-17T09:08:32.506Z,6.73
2018-09-17T09:11:06.075Z,5.92
2018-09-17T09:13:34.401Z,5.40
2018-09-17T09:16:02.747Z,5.50
2018-09-17T09:18:31.066Z,5.33
2018-09-17T09:20:59.394Z,4.70
2018-09-17T09:23:27.685Z,4.10
2018-09-17T09:25:55.972Z,3.85
2018-09-17T09:28:24.270Z,4.08
2018-09-17T09:30:52.737Z,3.50
2018-09-17T09:33:20.993Z,3.80
2018-09-17T09:35:49.319Z,3.20
2018-09-17T09:38:17.651Z,3.40
2018-09-17T09:40:45.952Z,3.40
2018-09-17T09:43:14.270Z,3.47
2018-09-17T09:45:42.550Z,4.00
2018-09-17T09:48:10.835Z,3.60
2018-09-17T09:50:39.247Z,3.67
2018-09-17T09:53:07.543Z,3.50
2018-09-17T09:55:35.904Z,4.20
2018-09-17T09:58:04.213Z,3.20
2018-09-17T10:00:37.843Z,3.30
2018-09-17T10:03:11.649Z,4.30
2018-09-17T10:05:39.932Z,3.60
2018-09-17T10:08:08.292Z,4.70
2018-09-17T10:10:41.892Z,4.10
2018-09-17T10:13:15.618Z,3.10
2018-09-17T10:15:49.360Z,3.70
2018-09-17T10:18:22.792Z,3.30
2018-09-17T10:20:51.105Z,4.50
2018-09-17T10:23:19.415Z,3.65
2018-09-17T10:25:47.743Z,3.12
2018-09-17T10:28:16.015Z,3.98
2018-09-17T10:30:44.423Z,2.85
2018-09-17T10:33:12.761Z,2.90
2018-09-17T10:35:41.089Z,3.00
2018-09-17T10:38:09.416Z,3.15
2018-09-17T10:40:37.743Z,3.02
2018-09-17T10:43:06.203Z,2.70
2018-09-17T10:45:34.529Z,3.10
2018-09-17T10:48:02.834Z,2.70
2018-09-17T10:50:31.127Z,3.10
2018-09-17T10:52:59.422Z,2.85
2018-09-17T10:55:27.789Z,2.80
2018-09-17T10:57:56.170Z,3.20
2018-09-17T11:00:24.595Z,2.83
2018-09-17T11:02:53.336Z,3.30
2018-09-17T11:05:21.666Z,2.90
2018-09-17T11:07:49.951Z,3.00
2018-09-17T11:10:18.248Z,3.00
2018-09-17T11:12:46.547Z,3.00
2018-09-17T11:15:14.861Z,3.20
2018-09-17T11:17:43.276Z,2.80
2018-09-17T11:20:11.490Z,3.00
2018-09-17T11:22:39.785Z,2.87
2018-09-17T11:25:08.194Z,3.30
2018-09-17T11:27:36.464Z,2.50
2018-09-17T11:30:04.908Z,2.70
2018-09-17T11:32:33.583Z,3.20
2018-09-17T11:35:01.922Z,2.90
2018-09-17T11:37:30.199Z,2.60
2018-09-17T11:39:58.520Z,2.80
2018-09-17T11:42:26.863Z,2.65
2018-09-17T11:44:55.150Z,2.47
2018-09-17T11:47:23.446Z,2.30
2018-09-17T11:49:51.748Z,2.65
2018-09-17T11:52:20.120Z,2.80
2018-09-17T11:54:48.435Z,2.50
2018-09-17T11:57:16.710Z,2.20
2018-09-17T11:59:45.045Z,2.35
2018-09-17T12:02:18.960Z,2.37
2018-09-17T12:04:52.461Z,2.30
2018-09-17T12:07:52.599Z,2.50
2018-09-17T12:10:20.881Z,2.50
2018-09-17T12:12:49.174Z,2.20
2018-09-17T12:15:17.468Z,2.60
2018-09-17T12:17:45.789Z,2.80
2018-09-17T12:20:14.158Z,2.20
2018-09-17T12:22:42.502Z,2.15
2018-09-17T12:25:10.807Z,2.50
2018-09-17T12:27:39.119Z,2.80
2018-09-17T12:30:07.446Z,1.80
2018-09-17T12:32:35.776Z,2.70
2018-09-17T12:35:04.075Z,4.10
2018-09-17T12:37:32.364Z,2.83
2018-09-17T12:40:00.653Z,4.30
2018-09-17T12:42:28.949Z,5.77
2018-09-17T12:44:57.363Z,5.75
2018-09-17T12:47:25.661Z,3.77
2018-09-17T12:49:53.992Z,7.17
2018-09-17T12:52:22.279Z,3.80
2018-09-17T12:54:50.620Z,3.30
2018-09-17T12:57:19.015Z,4.00
2018-09-17T12:59:47.267Z,5.25
2018-09-17T13:02:15.689Z,3.50
2018-09-17T13:04:43.999Z,3.93
2018-09-17T13:07:12.294Z,4.55
2018-09-17T13:09:40.565Z,3.40
2018-09-17T13:12:08.857Z,3.60
2018-09-17T13:14:37.193Z,2.75
2018-09-17T13:17:05.600Z,3.72
2018-09-17T13:19:33.881Z,3.10
2018-09-17T13:22:02.221Z,2.57
2018-09-17T13:24:30.540Z,2.62
2018-09-17T13:26:58.856Z,2.37
2018-09-17T13:29:27.149Z,2.20
2018-09-17T13:31:55.480Z,3.10
2018-09-17T13:34:23.746Z,2.20
2018-09-17T13:36:52.080Z,4.00
2018-09-17T13:39:20.428Z,3.92
2018-09-17T13:41:48.751Z,2.70
2018-09-17T13:44:17.175Z,3.50
2018-09-17T13:46:45.467Z,2.98
2018-09-17T13:49:13.773Z,3.62
2018-09-17T13:51:42.122Z,2.70
2018-09-17T13:54:10.423Z,2.50
2018-09-17T13:56:38.779Z,3.80
2018-09-17T13:59:07.097Z,2.58
2018-09-17T14:01:35.434Z,3.10
2018-09-17T14:04:03.860Z,2.15
2018-09-17T14:06:32.096Z,2.70
2018-09-17T14:09:00.407Z,3.30
2018-09-17T14:11:28.767Z,4.42
2018-09-17T14:13:57.082Z,2.83
2018-09-17T14:16:30.683Z,2.87
2018-09-17T14:18:59.000Z,2.20
2018-09-17T14:21:27.309Z,1.90
2018-09-17T14:23:55.613Z,2.80
2018-09-17T14:26:24.172Z,4.78
2018-09-17T14:28:52.441Z,4.53
2018-09-17T14:31:24.915Z,2.40
2018-09-17T14:33:54.049Z,3.25
2018-09-17T14:36:22.373Z,7.13
2018-09-17T14:38:50.687Z,5.62
2018-09-17T14:41:18.985Z,2.40
2018-09-17T14:43:47.557Z,2.20
2018-09-17T14:46:15.904Z,2.52
2018-09-17T14:48:44.518Z,2.00
2018-09-17T14:51:12.821Z,2.08
2018-09-17T14:53:41.438Z,1.85
2018-09-17T14:56:09.764Z,1.95
2018-09-17T14:58:38.092Z,2.75
2018-09-17T15:01:06.431Z,2.30
2018-09-17T15:03:34.718Z,2.60
2018-09-17T15:06:03.039Z,2.50
2018-09-17T15:08:31.428Z,4.55
2018-09-17T15:10:59.718Z,2.92
2018-09-17T15:13:28.010Z,2.20
2018-09-17T15:15:58.375Z,2.52
2018-09-17T15:18:27.216Z,3.35
2018-09-17T15:20:55.846Z,3.35
2018-09-17T15:23:24.218Z,2.60
2018-09-17T15:25:52.522Z,2.10
2018-09-17T15:28:20.942Z,2.30
2018-09-17T15:30:49.265Z,1.98
2018-09-17T15:33:17.571Z,3.10
2018-09-17T15:35:45.911Z,1.90
2018-09-17T15:38:14.352Z,8.63
2018-09-17T15:40:42.660Z,4.03
2018-09-17T15:43:10.946Z,2.20
2018-09-17T15:45:39.286Z,2.40
2018-09-17T15:48:07.628Z,2.10
2018-09-17T15:50:35.958Z,2.17
2018-09-17T15:53:04.269Z,2.60
2018-09-17T15:55:32.595Z,2.33
2018-09-17T15:58:01.029Z,2.98
2018-09-17T16:00:29.399Z,2.80
2018-09-17T16:02:57.791Z,2.30
2018-09-17T16:05:26.037Z,2.42
2018-09-17T16:07:54.375Z,2.02
2018-09-17T16:10:22.688Z,3.00
2018-09-17T16:12:50.989Z,2.83
2018-09-17T16:15:19.400Z,2.15
2018-09-17T16:17:47.707Z,3.20
2018-09-17T16:20:16.171Z,2.60
2018-09-17T16:22:44.471Z,3.80
2018-09-17T16:25:12.806Z,3.60
2018-09-17T16:27:41.295Z,2.40
2018-09-17T16:30:10.974Z,2.50
2018-09-17T16:32:39.543Z,2.75
2018-09-17T16:35:07.839Z,3.10
2018-09-17T16:37:36.348Z,2.90
2018-09-17T16:40:04.715Z,3.10
2018-09-17T16:42:33.019Z,18.67
2018-09-17T16:45:01.570Z,7.62
2018-09-17T16:47:30.146Z,13.10
2018-09-17T16:49:58.469Z,19.42
2018-09-17T16:52:26.767Z,16.07
2018-09-17T16:54:55.093Z,13.62
2018-09-17T16:57:23.433Z,17.25
2018-09-17T16:59:52.129Z,18.07
2018-09-17T17:02:20.519Z,15.03
2018-09-17T17:04:48.908Z,9.93
2018-09-17T17:07:17.216Z,5.10
2018-09-17T17:09:45.553Z,4.72
2018-09-17T17:12:13.831Z,17.53
2018-09-17T17:14:42.290Z,15.98
2018-09-17T17:17:10.624Z,9.80
2018-09-17T17:19:38.975Z,11.78
2018-09-17T17:22:07.555Z,11.70
2018-09-17T17:24:36.103Z,6.20
2018-09-17T17:27:04.401Z,11.63
2018-09-17T17:29:32.733Z,30.40
2018-09-17T17:32:01.151Z,12.60
2018-09-17T17:34:29.470Z,22.45
2018-09-17T17:36:57.752Z,16.25
2018-09-17T17:39:26.129Z,7.87
2018-09-17T17:41:54.432Z,7.33
2018-09-17T17:44:23.186Z,6.90
2018-09-17T17:46:51.454Z,14.43
2018-09-17T17:49:19.819Z,9.48
2018-09-17T17:51:48.167Z,10.75
2018-09-17T17:54:16.435Z,5.72
2018-09-17T17:56:44.756Z,6.42
2018-09-17T17:59:13.097Z,6.17
2018-09-17T18:01:41.390Z,6.97
2018-09-17T18:04:10.226Z,5.50
2018-09-17T18:06:38.760Z,7.50
2018-09-17T18:09:09.397Z,9.33
2018-09-17T18:11:38.066Z,11.22
2018-09-17T18:14:06.657Z,14.70
2018-09-17T18:16:35.072Z,14.30
2018-09-17T18:19:03.678Z,16.82
2018-09-17T18:21:32.368Z,8.25
2018-09-17T18:24:00.768Z,6.60
2018-09-17T18:26:29.778Z,7.17
2018-09-17T18:28:58.111Z,6.28
2018-09-17T18:31:26.428Z,8.10
2018-09-17T18:33:54.801Z,8.80
2018-09-17T18:36:23.287Z,7.95
2018-09-17T18:38:51.691Z,7.00
2018-09-17T18:41:19.916Z,8.83
2018-09-17T18:43:48.205Z,8.55
2018-09-17T18:46:16.548Z,15.05
2018-09-17T18:48:44.881Z,15.63
2018-09-17T18:51:13.245Z,14.47
2018-09-17T18:53:41.596Z,9.55
2018-09-17T18:56:09.903Z,7.90
2018-09-17T18:58:38.216Z,4.92
2018-09-17T19:01:06.717Z,4.70
2018-09-17T19:03:35.066Z,4.80
2018-09-17T19:06:03.449Z,5.30
2018-09-17T19:08:31.764Z,7.35
2018-09-17T19:11:00.157Z,6.40
2018-09-17T19:13:28.510Z,6.70
2018-09-17T19:15:57.905Z,7.17
2018-09-17T19:18:26.267Z,7.10
2018-09-17T19:20:54.803Z,7.70
2018-09-17T19:23:28.241Z,10.23
2018-09-17T19:25:56.860Z,9.80
2018-09-17T19:28:30.508Z,8.73
2018-09-17T19:30:58.858Z,6.72
2018-09-17T19:33:27.156Z,6.67
2018-09-17T19:35:55.515Z,5.67
2018-09-17T19:38:29.120Z,6.40
2018-09-17T19:40:57.404Z,6.10
2018-09-17T19:43:25.758Z,5.45
2018-09-17T19:45:59.508Z,4.95
2018-09-17T19:48:27.880Z,4.70
2018-09-17T19:51:01.542Z,4.70
2018-09-17T19:53:29.866Z,4.55
2018-09-17T19:55:58.230Z,3.70
2018-09-17T19:58:31.734Z,3.67
2018-09-17T20:01:00.135Z,3.75
2018-09-17T20:03:28.366Z,3.30
2018-09-17T20:06:01.983Z,3.70
2018-09-17T20:08:30.278Z,3.50
2018-09-17T20:10:58.570Z,3.37
2018-09-17T20:13:26.864Z,3.80
2018-09-17T20:15:55.231Z,3.80
2018-09-17T20:18:23.539Z,3.80
2018-09-17T20:20:51.884Z,3.70
2018-09-17T20:23:20.169Z,3.45
2018-09-17T20:25:48.456Z,3.80
2018-09-17T20:28:16.782Z,3.52
2018-09-17T20:30:45.115Z,3.90
2018-09-17T20:33:13.412Z,3.40
2018-09-17T20:35:41.816Z,3.27
2018-09-17T20:38:10.107Z,3.87
2018-09-17T20:40:41.069Z,3.80
2018-09-17T20:43:09.588Z,3.37
2018-09-17T20:45:37.907Z,3.80
2018-09-17T20:48:06.296Z,3.60
2018-09-17T20:50:34.573Z,3.35
2018-09-17T20:53:03.324Z,3.30
2018-09-17T20:55:31.738Z,3.67
2018-09-17T20:58:00.012Z,3.47
2018-09-17T21:00:31.171Z,3.90
2018-09-17T21:02:59.420Z,3.93
2018-09-17T21:05:27.737Z,3.93
2018-09-17T21:07:56.051Z,3.53
2018-09-17T21:11:27.620Z,3.97
2018-09-17T21:13:55.948Z,3.42
2018-09-17T21:16:24.427Z,3.60
2018-09-17T21:18:52.746Z,4.30
2018-09-17T21:21:21.192Z,3.80
2018-09-17T21:23:49.503Z,3.90
2018-09-17T21:26:17.798Z,3.50
2018-09-17T21:28:46.154Z,3.60
2018-09-17T21:31:14.490Z,3.80
2018-09-17T21:33:42.878Z,3.80
2018-09-17T21:36:11.124Z,3.30
2018-09-17T21:38:39.407Z,3.58
2018-09-17T21:41:07.761Z,3.50
2018-09-17T21:43:36.060Z,3.52
2018-09-17T21:46:04.365Z,3.60
2018-09-17T21:48:32.629Z,3.75
2018-09-17T21:51:01.026Z,3.52
2018-09-17T21:53:29.308Z,3.70
2018-09-17T21:55:57.695Z,3.72
2018-09-17T21:58:25.933Z,3.37
2018-09-17T22:01:00.984Z,4.10
2018-09-17T22:03:30.603Z,3.70
2018-09-17T22:05:59.300Z,3.62
2018-09-17T22:08:27.784Z,3.72
2018-09-17T22:10:56.163Z,4.20
2018-09-17T22:13:24.461Z,3.92
2018-09-17T22:15:52.743Z,4.28
2018-09-17T22:18:21.201Z,3.90
2018-09-17T22:20:49.516Z,4.15
2018-09-17T22:23:17.828Z,4.40
2018-09-17T22:25:46.126Z,3.90
2018-09-17T22:28:14.445Z,3.65
2018-09-17T22:30:42.727Z,4.35
2018-09-17T22:33:11.050Z,3.95
2018-09-17T22:35:39.331Z,3.80
2018-09-17T22:38:07.853Z,3.70
2018-09-17T22:40:36.072Z,3.77
2018-09-17T22:43:04.373Z,3.80
2018-09-17T22:45:32.658Z,3.80
2018-09-17T22:48:00.966Z,3.70
2018-09-17T22:50:29.896Z,4.20
2018-09-17T22:52:58.349Z,4.20
2018-09-17T22:55:26.611Z,4.30
2018-09-17T22:57:54.910Z,3.70
2018-09-17T23:00:23.139Z,3.95
2018-09-17T23:02:51.420Z,4.00
2018-09-17T23:05:19.692Z,4.20
2018-09-17T23:07:47.989Z,3.70
2018-09-17T23:10:16.337Z,4.10
2018-09-17T23:12:44.601Z,4.25
2018-09-17T23:15:12.886Z,3.80
2018-09-17T23:17:41.302Z,4.12
2018-09-17T23:20:09.553Z,3.80
2018-09-17T23:22:37.835Z,4.10
2018-09-17T23:25:06.192Z,4.22
2018-09-17T23:27:34.471Z,4.60
2018-09-17T23:30:02.841Z,4.13
2018-09-17T23:32:31.081Z,4.23
2018-09-17T23:34:59.418Z,4.53
2018-09-17T23:37:27.684Z,4.40
2018-09-17T23:39:55.979Z,4.30
2018-09-17T23:42:24.297Z,4.20
2018-09-17T23:44:52.564Z,4.17
2018-09-17T23:47:20.840Z,4.10
2018-09-17T23:49:49.098Z,4.00
2018-09-17T23:52:17.359Z,4.50
2018-09-17T23:54:45.703Z,4.40
2018-09-17T23:57:13.991Z,4.70
2018-09-17T23:59:42.280Z,4.03
